createdAt,value
2022-08-28T00:02:07.696Z,99.90
2022-08-28T00:07:09.756Z,99.90
2022-08-28T00:12:12.445Z,99.90
2022-08-28T00:17:14.278Z,99.90
2022-08-28T00:22:16.503Z,99.90
2022-08-28T00:27:37.073Z,99.90
2022-08-28T00:32:38.896Z,99.90
2022-08-28T00:37:40.668Z,99.90
2022-08-28T00:42:43.169Z,99.90
2022-08-28T00:47:45.717Z,99.90
2022-08-28T00:52:53.031Z,99.90
2022-08-28T00:58:00.620Z,99.90
2022-08-28T01:03:05.634Z,99.90
2022-08-28T01:08:07.487Z,99.90
2022-08-28T01:13:09.704Z,99.90
2022-08-28T01:18:15.664Z,99.90
2022-08-28T01:23:32.068Z,99.90
2022-08-28T01:28:33.953Z,99.90
2022-08-28T01:33:35.799Z,99.90
2022-08-28T01:38:38.395Z,99.90
2022-08-28T01:43:41.516Z,99.90
2022-08-28T01:48:44.148Z,99.90
2022-08-28T01:53:46.785Z,99.90
2022-08-28T01:58:49.100Z,99.90
2022-08-28T02:03:53.083Z,99.90
2022-08-28T02:08:55.577Z,99.90
2022-08-28T02:13:57.491Z,99.90
2022-08-28T02:19:00.652Z,99.90
2022-08-28T02:24:03.225Z,99.90
2022-08-28T02:29:05.487Z,99.90
2022-08-28T02:34:07.511Z,99.90
2022-08-28T02:39:09.730Z,99.90
2022-08-28T02:44:11.508Z,99.90
2022-08-28T02:49:13.344Z,99.90
2022-08-28T02:54:15.128Z,99.90
2022-08-28T02:59:20.910Z,99.90
2022-08-28T03:04:22.931Z,99.90
2022-08-28T03:09:24.889Z,99.90
2022-08-28T03:14:26.714Z,99.90
2022-08-28T03:19:28.713Z,99.90
2022-08-28T03:24:30.570Z,99.90
2022-08-28T03:29:32.551Z,99.90
2022-08-28T03:34:34.325Z,99.90
2022-08-28T03:39:36.116Z,99.90
2022-08-28T03:44:39.311Z,99.90
2022-08-28T03:49:41.136Z,99.90
2022-08-28T03:54:43.515Z,99.90
2022-08-28T03:59:50.257Z,99.90
2022-08-28T04:04:52.059Z,99.90
2022-08-28T04:09:53.865Z,99.90
2022-08-28T04:14:55.659Z,99.90
2022-08-28T04:19:57.501Z,99.90
2022-08-28T04:24:59.304Z,99.90
2022-08-28T04:30:01.184Z,99.90
2022-08-28T04:35:08.091Z,99.90
2022-08-28T04:40:11.610Z,99.90
2022-08-28T04:45:13.591Z,99.90
2022-08-28T04:50:15.565Z,99.90
2022-08-28T04:55:18.239Z,99.90
2022-08-28T05:00:29.689Z,99.90
2022-08-28T05:05:31.914Z,99.90
2022-08-28T05:10:35.541Z,99.90
2022-08-28T05:15:38.998Z,99.90
2022-08-28T05:20:43.649Z,99.90
2022-08-28T05:25:48.485Z,99.90
2022-08-28T05:30:51.266Z,99.90
2022-08-28T05:35:53.185Z,99.90
2022-08-28T05:40:55.363Z,99.90
2022-08-28T05:46:00.073Z,99.90
2022-08-28T05:51:14.525Z,99.90
2022-08-28T05:56:22.359Z,99.90
2022-08-28T06:01:28.546Z,99.90
2022-08-28T06:06:34.319Z,99.90
2022-08-28T06:11:38.698Z,99.90
2022-08-28T06:16:50.216Z,99.90
2022-08-28T06:21:57.179Z,99.90
2022-08-28T06:26:59.772Z,99.90
2022-08-28T06:32:04.900Z,99.90
2022-08-28T06:37:07.909Z,99.90
2022-08-28T06:42:10.556Z,99.90
2022-08-28T06:47:14.775Z,99.90
2022-08-28T06:52:16.613Z,99.90
2022-08-28T06:57:18.405Z,99.90
2022-08-28T07:02:21.373Z,99.90
2022-08-28T07:07:31.449Z,99.90
2022-08-28T07:12:34.437Z,99.90
2022-08-28T07:17:36.276Z,99.90
2022-08-28T07:22:40.979Z,99.80
2022-08-28T07:27:43.654Z,99.40
2022-08-28T07:32:49.155Z,99.40
2022-08-28T07:37:50.944Z,98.70
2022-08-28T07:43:11.127Z,98.70
2022-08-28T07:48:13.282Z,98.00
2022-08-28T07:53:15.454Z,97.40
2022-08-28T07:58:18.909Z,97.20
2022-08-28T08:03:21.188Z,97.10
2022-08-28T08:08:23.691Z,96.80
2022-08-28T08:13:26.030Z,96.40
2022-08-28T08:18:28.034Z,95.90
2022-08-28T08:23:29.845Z,95.40
2022-08-28T08:28:34.598Z,95.60
2022-08-28T08:33:38.572Z,94.80
2022-08-28T08:38:41.643Z,94.40
2022-08-28T08:44:08.871Z,95.40
2022-08-28T08:49:16.313Z,94.60
2022-08-28T08:54:20.691Z,93.60
2022-08-28T08:59:26.104Z,92.60
2022-08-28T09:04:42.907Z,91.90
2022-08-28T09:09:50.007Z,91.00
2022-08-28T09:15:09.845Z,89.10
2022-08-28T09:20:15.948Z,84.90
2022-08-28T09:25:51.846Z,82.10
2022-08-28T09:30:59.775Z,82.70
2022-08-28T09:36:29.201Z,77.50
2022-08-28T09:41:50.431Z,77.30
2022-08-28T09:46:52.932Z,73.90
2022-08-28T09:51:55.664Z,72.00
2022-08-28T09:56:57.704Z,73.00
2022-08-28T10:02:18.276Z,73.40
2022-08-28T10:07:35.045Z,74.90
2022-08-28T10:12:59.578Z,78.80
2022-08-28T10:18:22.937Z,81.10
2022-08-28T10:23:43.749Z,81.10
2022-08-28T10:29:11.395Z,80.60
2022-08-28T10:34:21.695Z,77.50
2022-08-28T10:39:47.538Z,72.90
2022-08-28T10:45:04.528Z,74.10
2022-08-28T10:50:21.453Z,72.80
2022-08-28T10:55:32.287Z,74.20
2022-08-28T11:00:35.886Z,71.80
2022-08-28T11:05:49.414Z,71.50
2022-08-28T11:10:58.989Z,74.20
2022-08-28T11:16:18.674Z,71.90
2022-08-28T11:21:29.617Z,74.20
2022-08-28T11:26:54.178Z,72.40
2022-08-28T11:32:30.715Z,69.50
2022-08-28T11:37:41.117Z,69.00
2022-08-28T11:42:43.431Z,67.20
2022-08-28T11:47:49.009Z,66.60
2022-08-28T11:53:27.891Z,66.40
2022-08-28T11:58:40.796Z,65.60
2022-08-28T12:03:54.518Z,67.00
2022-08-28T12:08:59.207Z,68.40
2022-08-28T12:14:01.282Z,67.40
2022-08-28T12:19:04.300Z,66.30
2022-08-28T12:24:22.101Z,65.20
2022-08-28T12:30:03.672Z,66.50
2022-08-28T12:35:29.609Z,67.20
2022-08-28T12:40:53.451Z,68.00
2022-08-28T12:45:57.615Z,66.80
2022-08-28T12:51:12.631Z,67.10
2022-08-28T12:56:17.875Z,66.50
2022-08-28T13:01:25.658Z,63.60
2022-08-28T13:06:33.322Z,60.40
2022-08-28T13:11:40.462Z,60.30
2022-08-28T13:16:46.577Z,62.60
2022-08-28T13:21:48.727Z,65.60
2022-08-28T13:27:05.419Z,66.30
2022-08-28T13:32:09.919Z,67.80
2022-08-28T13:37:45.682Z,68.30
2022-08-28T13:42:48.208Z,69.40
2022-08-28T13:47:50.138Z,69.70
2022-08-28T13:52:51.953Z,70.40
2022-08-28T13:57:54.869Z,70.30
2022-08-28T14:03:15.740Z,70.50
2022-08-28T14:08:17.598Z,71.00
2022-08-28T14:13:20.206Z,70.30
2022-08-28T14:18:23.220Z,71.00
2022-08-28T14:23:25.095Z,72.20
2022-08-28T14:28:26.948Z,72.00
2022-08-28T14:33:28.777Z,72.40
2022-08-28T14:38:36.268Z,72.80
2022-08-28T14:43:39.031Z,72.70
2022-08-28T14:48:40.819Z,72.90
2022-08-28T14:53:43.084Z,74.50
2022-08-28T14:58:45.385Z,73.60
2022-08-28T15:03:47.281Z,74.50
2022-08-28T15:08:49.221Z,73.10
2022-08-28T15:13:52.387Z,74.80
2022-08-28T15:18:55.495Z,74.60
2022-08-28T15:23:57.822Z,74.30
2022-08-28T15:29:02.996Z,74.60
2022-08-28T15:34:14.409Z,73.50
2022-08-28T15:39:34.902Z,74.40
2022-08-28T15:44:37.359Z,74.30
2022-08-28T15:49:46.773Z,73.30
2022-08-28T15:54:50.745Z,73.90
2022-08-28T15:59:52.567Z,74.40
2022-08-28T16:04:55.068Z,73.90
2022-08-28T16:09:56.855Z,73.40
2022-08-28T16:14:58.659Z,73.80
2022-08-28T16:20:00.414Z,73.80
2022-08-28T16:25:02.224Z,74.80
2022-08-28T16:30:06.137Z,72.50
2022-08-28T16:35:08.606Z,72.30
2022-08-28T16:40:11.716Z,71.50
2022-08-28T16:45:17.060Z,71.80
2022-08-28T16:50:19.419Z,71.10
2022-08-28T16:55:21.288Z,71.60
2022-08-28T17:00:24.262Z,71.70
2022-08-28T17:05:27.273Z,70.80
2022-08-28T17:10:29.163Z,71.40
2022-08-28T17:15:31.709Z,71.10
2022-08-28T17:20:52.032Z,70.50
2022-08-28T17:25:53.833Z,70.60
2022-08-28T17:30:57.278Z,71.60
2022-08-28T17:35:59.840Z,72.30
2022-08-28T17:41:06.169Z,72.90
2022-08-28T17:46:08.568Z,73.10
2022-08-28T17:51:10.418Z,73.30
2022-08-28T17:56:13.010Z,73.30
2022-08-28T18:01:25.550Z,73.30
2022-08-28T18:06:27.479Z,73.70
2022-08-28T18:11:29.481Z,73.40
2022-08-28T18:16:32.646Z,74.40
2022-08-28T18:21:34.615Z,75.50
2022-08-28T18:26:36.529Z,75.50
2022-08-28T18:31:38.457Z,76.50
2022-08-28T18:36:41.509Z,75.60
2022-08-28T18:41:44.594Z,74.00
2022-08-28T18:46:48.161Z,72.60
2022-08-28T18:51:51.134Z,71.80
2022-08-28T18:56:58.412Z,71.60
2022-08-28T19:02:03.562Z,71.70
2022-08-28T19:07:06.077Z,71.30
2022-08-28T19:12:08.307Z,71.60
2022-08-28T19:17:10.173Z,71.60
2022-08-28T19:22:12.028Z,71.40
2022-08-28T19:27:15.434Z,71.90
2022-08-28T19:32:17.232Z,72.30
2022-08-28T19:37:19.049Z,72.10
2022-08-28T19:42:20.990Z,72.90
2022-08-28T19:47:23.540Z,74.80
2022-08-28T19:52:25.334Z,76.80
2022-08-28T19:57:27.228Z,76.70
2022-08-28T20:02:29.561Z,76.40
2022-08-28T20:07:31.417Z,76.70
2022-08-28T20:12:33.850Z,76.60
2022-08-28T20:17:37.400Z,77.40
2022-08-28T20:22:45.824Z,79.50
2022-08-28T20:27:47.630Z,79.90
2022-08-28T20:32:49.400Z,80.90
2022-08-28T20:37:51.527Z,80.70
2022-08-28T20:42:53.301Z,80.20
2022-08-28T20:47:55.258Z,80.50
2022-08-28T20:52:57.031Z,80.30
2022-08-28T20:57:58.803Z,81.00
2022-08-28T21:03:00.597Z,81.10
2022-08-28T21:08:02.848Z,82.20
2022-08-28T21:13:05.638Z,83.00
2022-08-28T21:18:10.466Z,84.00
2022-08-28T21:23:14.107Z,85.10
2022-08-28T21:28:16.050Z,85.70
2022-08-28T21:33:17.980Z,87.00
2022-08-28T21:38:19.794Z,86.90
2022-08-28T21:43:21.566Z,87.10
2022-08-28T21:48:24.379Z,87.30
2022-08-28T21:53:26.424Z,86.80
2022-08-28T21:58:28.268Z,85.00
2022-08-28T22:03:30.974Z,83.30
2022-08-28T22:08:32.779Z,81.60
2022-08-28T22:13:34.711Z,81.30
2022-08-28T22:18:36.752Z,81.70
2022-08-28T22:23:38.556Z,82.70
2022-08-28T22:28:40.445Z,83.50
2022-08-28T22:33:43.065Z,83.30
2022-08-28T22:38:49.734Z,84.30
2022-08-28T22:43:55.099Z,84.70
2022-08-28T22:48:56.885Z,84.70
2022-08-28T22:53:58.747Z,85.10
2022-08-28T22:59:00.655Z,85.00
2022-08-28T23:04:02.902Z,85.30
2022-08-28T23:09:04.981Z,84.40
2022-08-28T23:14:06.944Z,84.10
2022-08-28T23:19:10.337Z,84.30
2022-08-28T23:24:18.538Z,84.50
2022-08-28T23:29:20.495Z,84.60
2022-08-28T23:34:22.293Z,85.30
2022-08-28T23:39:24.931Z,84.30
2022-08-28T23:44:29.652Z,84.60
2022-08-28T23:49:32.892Z,84.90
2022-08-28T23:54:34.683Z,85.20
2022-08-28T23:59:36.771Z,85.50
